Skeena-Queen Charlotte E, British Columbia

5:46 PM PDT on May 03, 2015 (GMT -0700)
Sandspit | | Change Station
CLOSE
Current Station
Airport
Location: Sandspit,
Elevation: 20 ft
Nearby Weather Stations

Elev 20 ft 53.25 °N, 131.81 °W | Updated 18 minutes ago

Light Rain
Light Rain
48 °F
Feels Like 48 °F
N
20
Wind Variable Wind from SE

Today
High -- | Low -- °F
--% Chance of Precip.
Yesterday
High -- | Low -- °F
Precip. -- in
6:09 AM 9:18 PM
Full, 100% visible
Pressure 29.93 in
Visibility 9.0 miles
Clouds Scattered Clouds 3900 ft
Overcast 6500 ft
Dew Point 41 °F
Humidity 76%
Rainfall 0.00 in
Snow Depth Not available.
UV 1 out of 12
Pollen Not available.
Air Quality Not available.
Flu Activity Not available.
SPECI CYZP 040028Z AUTO 13017KT 9SM -RA SCT039 OVC065 09/05 A2992 RMK SLP133

More Conditions Fewer Conditions

Pressure 29.93 in
Visibility 9.0 miles
Clouds Scattered Clouds 3900 ft
Overcast 6500 ft
Dew Point 41 °F
Humidity 76%
Rainfall 0.00 in
Snow Depth Not available.
UV 1 out of 12
Pollen Not available.
Air Quality Not available.
Flu Activity Not available.
SPECI CYZP 040028Z AUTO 13017KT 9SM -RA SCT039 OVC065 09/05 A2992 RMK SLP133

More Conditions Fewer Conditions

10-Day Weather Forecast

Almanac

Astronomy

May. 03, 2015 Rise Set
Actual Time
Civil Twilight
Nautical Twilight
Astronomical Twilight
Moon
Length of Visible Light
Length of Day
Tomorrow will be .
, % of the Moon is Illuminated

Today's Extremes

Country Highs Country Lows

Community

WunderPhotos

Upload Photos

1,818,446 photos uploaded!

WunderBlogs® & News

Nearby

Air Quality

  Air Quality AQ Index Pollutant
Not available.

Snow Depth

Station Depth Elevation

Earthquake Activity

City Distance Mag. Time & Date
Minimum magnitude displayed is 2.5.

Coastal Water Temperatures

Place Temperature

Stations

Nearby Weather Stations

Station Location Temp. Windchill Dew Point Humidity Wind Precip. Elev Updated Type